sensor_id;sensor_type;location;lat;lon;timestamp;P1;durP1;ratioP1;P2;durP2;ratioP2
63010;SDS011;49100;48.842;2.166;2022-09-28T00:00:42;7.50;;;3.00;;
63010;SDS011;49100;48.842;2.166;2022-09-28T00:03:29;8.50;;;5.25;;
63010;SDS011;49100;48.842;2.166;2022-09-28T00:06:15;5.00;;;4.50;;
63010;SDS011;49100;48.842;2.166;2022-09-28T00:09:01;7.25;;;4.00;;
63010;SDS011;49100;48.842;2.166;2022-09-28T00:11:46;8.75;;;4.00;;
63010;SDS011;49100;48.842;2.166;2022-09-28T00:14:30;5.25;;;4.00;;
63010;SDS011;49100;48.842;2.166;2022-09-28T00:17:15;10.00;;;3.75;;
63010;SDS011;49100;48.842;2.166;2022-09-28T00:20:00;5.25;;;3.50;;
63010;SDS011;49100;48.842;2.166;2022-09-28T00:22:48;7.00;;;4.75;;
63010;SDS011;49100;48.842;2.166;2022-09-28T00:25:32;4.75;;;4.75;;
63010;SDS011;49100;48.842;2.166;2022-09-28T00:28:16;9.25;;;3.75;;
63010;SDS011;49100;48.842;2.166;2022-09-28T00:31:01;8.50;;;6.25;;
63010;SDS011;49100;48.842;2.166;2022-09-28T00:33:49;8.50;;;4.25;;
63010;SDS011;49100;48.842;2.166;2022-09-28T00:36:34;8.75;;;3.50;;
63010;SDS011;49100;48.842;2.166;2022-09-28T00:39:19;4.50;;;2.00;;
63010;SDS011;49100;48.842;2.166;2022-09-28T00:42:09;7.75;;;4.00;;
63010;SDS011;49100;48.842;2.166;2022-09-28T00:44:55;4.00;;;3.00;;
63010;SDS011;49100;48.842;2.166;2022-09-28T00:47:47;6.00;;;4.00;;
63010;SDS011;49100;48.842;2.166;2022-09-28T00:50:38;5.00;;;3.50;;
63010;SDS011;49100;48.842;2.166;2022-09-28T00:53:24;6.00;;;4.75;;
63010;SDS011;49100;48.842;2.166;2022-09-28T00:56:11;6.75;;;3.00;;
63010;SDS011;49100;48.842;2.166;2022-09-28T00:59:00;9.75;;;5.00;;
63010;SDS011;49100;48.842;2.166;2022-09-28T01:01:47;6.00;;;3.00;;
63010;SDS011;49100;48.842;2.166;2022-09-28T01:04:31;6.25;;;3.25;;
63010;SDS011;49100;48.842;2.166;2022-09-28T01:07:16;7.00;;;5.25;;
63010;SDS011;49100;48.842;2.166;2022-09-28T01:10:02;8.00;;;3.75;;
63010;SDS011;49100;48.842;2.166;2022-09-28T01:12:47;8.00;;;4.75;;
63010;SDS011;49100;48.842;2.166;2022-09-28T01:15:32;7.25;;;5.00;;
63010;SDS011;49100;48.842;2.166;2022-09-28T01:18:33;8.50;;;4.25;;
63010;SDS011;49100;48.842;2.166;2022-09-28T01:21:28;5.75;;;4.75;;
63010;SDS011;49100;48.842;2.166;2022-09-28T01:24:26;8.00;;;7.75;;
63010;SDS011;49100;48.842;2.166;2022-09-28T01:30:11;5.25;;;3.25;;
63010;SDS011;49100;48.842;2.166;2022-09-28T01:35:51;8.00;;;4.00;;
63010;SDS011;49100;48.842;2.166;2022-09-28T01:38:43;5.50;;;3.25;;
63010;SDS011;49100;48.842;2.166;2022-09-28T01:41:34;5.25;;;4.00;;
63010;SDS011;49100;48.842;2.166;2022-09-28T01:44:23;6.50;;;4.00;;
63010;SDS011;49100;48.842;2.166;2022-09-28T01:47:09;6.75;;;3.75;;
63010;SDS011;49100;48.842;2.166;2022-09-28T01:50:04;5.00;;;4.00;;
63010;SDS011;49100;48.842;2.166;2022-09-28T01:56:01;6.00;;;4.00;;
63010;SDS011;49100;48.842;2.166;2022-09-28T01:59:08;5.25;;;3.00;;
63010;SDS011;49100;48.842;2.166;2022-09-28T02:02:02;3.00;;;3.00;;
63010;SDS011;49100;48.842;2.166;2022-09-28T02:04:52;2.50;;;2.50;;
63010;SDS011;49100;48.842;2.166;2022-09-28T02:07:42;3.25;;;2.25;;
63010;SDS011;49100;48.842;2.166;2022-09-28T02:10:39;7.50;;;3.50;;
63010;SDS011;49100;48.842;2.166;2022-09-28T02:13:28;7.00;;;4.00;;
63010;SDS011;49100;48.842;2.166;2022-09-28T02:19:24;7.50;;;5.25;;
63010;SDS011;49100;48.842;2.166;2022-09-28T02:25:29;5.75;;;5.25;;
63010;SDS011;49100;48.842;2.166;2022-09-28T02:28:18;9.00;;;5.00;;
63010;SDS011;49100;48.842;2.166;2022-09-28T02:31:02;7.50;;;4.50;;
63010;SDS011;49100;48.842;2.166;2022-09-28T02:33:46;4.00;;;3.00;;
63010;SDS011;49100;48.842;2.166;2022-09-28T02:36:33;11.50;;;4.25;;
63010;SDS011;49100;48.842;2.166;2022-09-28T02:39:18;3.25;;;1.50;;
63010;SDS011;49100;48.842;2.166;2022-09-28T02:59:03;7.50;;;3.50;;
63010;SDS011;49100;48.842;2.166;2022-09-28T03:02:09;4.50;;;2.50;;
63010;SDS011;49100;48.842;2.166;2022-09-28T03:08:00;5.00;;;3.50;;
63010;SDS011;49100;48.842;2.166;2022-09-28T03:10:46;8.00;;;3.75;;
63010;SDS011;49100;48.842;2.166;2022-09-28T03:13:34;8.00;;;4.50;;
63010;SDS011;49100;48.842;2.166;2022-09-28T03:16:19;7.00;;;4.50;;
63010;SDS011;49100;48.842;2.166;2022-09-28T03:19:04;10.50;;;5.00;;
63010;SDS011;49100;48.842;2.166;2022-09-28T03:21:48;8.50;;;4.50;;
63010;SDS011;49100;48.842;2.166;2022-09-28T03:24:33;7.25;;;5.00;;
63010;SDS011;49100;48.842;2.166;2022-09-28T03:27:17;6.00;;;4.25;;
63010;SDS011;49100;48.842;2.166;2022-09-28T03:30:03;6.25;;;4.00;;
63010;SDS011;49100;48.842;2.166;2022-09-28T03:32:55;4.50;;;4.50;;
63010;SDS011;49100;48.842;2.166;2022-09-28T03:35:45;6.00;;;4.25;;
63010;SDS011;49100;48.842;2.166;2022-09-28T03:38:30;4.00;;;4.00;;
63010;SDS011;49100;48.842;2.166;2022-09-28T03:41:15;9.25;;;3.75;;
63010;SDS011;49100;48.842;2.166;2022-09-28T03:43:59;8.25;;;4.25;;
63010;SDS011;49100;48.842;2.166;2022-09-28T03:46:43;3.25;;;3.25;;
63010;SDS011;49100;48.842;2.166;2022-09-28T03:49:29;6.25;;;3.50;;
63010;SDS011;49100;48.842;2.166;2022-09-28T03:52:14;5.00;;;3.50;;
63010;SDS011;49100;48.842;2.166;2022-09-28T03:54:58;5.25;;;4.00;;
63010;SDS011;49100;48.842;2.166;2022-09-28T03:57:42;4.00;;;3.00;;
63010;SDS011;49100;48.842;2.166;2022-09-28T04:00:27;5.25;;;4.00;;
63010;SDS011;49100;48.842;2.166;2022-09-28T04:03:12;4.25;;;2.00;;
63010;SDS011;49100;48.842;2.166;2022-09-28T04:05:57;5.00;;;4.25;;
63010;SDS011;49100;48.842;2.166;2022-09-28T04:08:41;5.50;;;4.25;;
63010;SDS011;49100;48.842;2.166;2022-09-28T04:11:26;4.50;;;3.75;;
63010;SDS011;49100;48.842;2.166;2022-09-28T04:14:10;7.50;;;5.50;;
63010;SDS011;49100;48.842;2.166;2022-09-28T04:16:55;6.50;;;4.00;;
63010;SDS011;49100;48.842;2.166;2022-09-28T04:19:39;6.50;;;4.50;;
63010;SDS011;49100;48.842;2.166;2022-09-28T04:22:24;6.25;;;5.25;;
63010;SDS011;49100;48.842;2.166;2022-09-28T04:25:08;4.50;;;3.00;;
63010;SDS011;49100;48.842;2.166;2022-09-28T04:27:53;4.75;;;2.00;;
63010;SDS011;49100;48.842;2.166;2022-09-28T04:30:56;5.00;;;3.50;;
63010;SDS011;49100;48.842;2.166;2022-09-28T04:33:40;4.00;;;3.75;;
63010;SDS011;49100;48.842;2.166;2022-09-28T04:36:25;3.50;;;2.00;;
63010;SDS011;49100;48.842;2.166;2022-09-28T04:39:13;3.50;;;3.00;;
63010;SDS011;49100;48.842;2.166;2022-09-28T04:41:58;4.50;;;2.75;;
63010;SDS011;49100;48.842;2.166;2022-09-28T04:44:44;5.50;;;3.50;;
63010;SDS011;49100;48.842;2.166;2022-09-28T04:47:28;7.25;;;5.00;;
63010;SDS011;49100;48.842;2.166;2022-09-28T04:50:13;6.50;;;5.50;;
63010;SDS011;49100;48.842;2.166;2022-09-28T04:52:59;4.50;;;4.50;;
63010;SDS011;49100;48.842;2.166;2022-09-28T04:55:44;10.00;;;5.00;;
63010;SDS011;49100;48.842;2.166;2022-09-28T04:58:39;8.50;;;6.75;;
63010;SDS011;49100;48.842;2.166;2022-09-28T05:01:23;6.25;;;5.00;;
63010;SDS011;49100;48.842;2.166;2022-09-28T05:04:08;7.50;;;4.25;;
63010;SDS011;49100;48.842;2.166;2022-09-28T05:06:52;6.75;;;5.50;;
63010;SDS011;49100;48.842;2.166;2022-09-28T05:09:37;7.25;;;5.50;;
63010;SDS011;49100;48.842;2.166;2022-09-28T05:12:21;4.00;;;4.00;;
63010;SDS011;49100;48.842;2.166;2022-09-28T05:15:07;7.75;;;5.75;;
63010;SDS011;49100;48.842;2.166;2022-09-28T05:17:52;8.25;;;6.00;;
63010;SDS011;49100;48.842;2.166;2022-09-28T05:20:39;7.50;;;6.25;;
63010;SDS011;49100;48.842;2.166;2022-09-28T05:23:25;8.75;;;7.50;;
63010;SDS011;49100;48.842;2.166;2022-09-28T05:26:09;8.00;;;6.50;;
63010;SDS011;49100;48.842;2.166;2022-09-28T05:28:54;16.50;;;15.75;;
63010;SDS011;49100;48.842;2.166;2022-09-28T05:31:39;20.75;;;18.25;;
63010;SDS011;49100;48.842;2.166;2022-09-28T05:34:23;13.50;;;9.50;;
63010;SDS011;49100;48.842;2.166;2022-09-28T05:37:08;17.75;;;15.25;;
63010;SDS011;49100;48.842;2.166;2022-09-28T05:39:52;4.25;;;1.50;;
63010;SDS011;49100;48.842;2.166;2022-09-28T05:42:37;4.25;;;2.75;;
63010;SDS011;49100;48.842;2.166;2022-09-28T05:45:22;6.00;;;6.00;;
63010;SDS011;49100;48.842;2.166;2022-09-28T05:48:06;5.25;;;5.25;;
63010;SDS011;49100;48.842;2.166;2022-09-28T05:50:51;6.25;;;5.25;;
63010;SDS011;49100;48.842;2.166;2022-09-28T05:53:35;8.25;;;6.75;;
63010;SDS011;49100;48.842;2.166;2022-09-28T05:56:19;5.50;;;5.25;;
63010;SDS011;49100;48.842;2.166;2022-09-28T05:59:04;13.50;;;8.25;;
63010;SDS011;49100;48.842;2.166;2022-09-28T06:01:49;4.25;;;4.25;;
63010;SDS011;49100;48.842;2.166;2022-09-28T06:04:33;5.50;;;5.00;;
63010;SDS011;49100;48.842;2.166;2022-09-28T06:07:17;7.75;;;5.00;;
63010;SDS011;49100;48.842;2.166;2022-09-28T06:10:03;8.25;;;5.00;;
63010;SDS011;49100;48.842;2.166;2022-09-28T06:12:52;8.25;;;6.25;;
63010;SDS011;49100;48.842;2.166;2022-09-28T06:15:37;9.75;;;8.25;;
63010;SDS011;49100;48.842;2.166;2022-09-28T06:18:21;6.50;;;6.25;;
63010;SDS011;49100;48.842;2.166;2022-09-28T06:21:06;14.25;;;7.75;;
63010;SDS011;49100;48.842;2.166;2022-09-28T06:23:54;19.50;;;11.25;;
63010;SDS011;49100;48.842;2.166;2022-09-28T06:26:38;13.00;;;9.50;;
63010;SDS011;49100;48.842;2.166;2022-09-28T06:29:22;10.50;;;6.00;;
63010;SDS011;49100;48.842;2.166;2022-09-28T06:32:07;9.25;;;7.00;;
63010;SDS011;49100;48.842;2.166;2022-09-28T06:34:51;9.75;;;5.75;;
63010;SDS011;49100;48.842;2.166;2022-09-28T06:37:36;9.50;;;6.00;;
63010;SDS011;49100;48.842;2.166;2022-09-28T06:40:20;8.75;;;5.00;;
63010;SDS011;49100;48.842;2.166;2022-09-28T06:43:14;6.00;;;4.25;;
63010;SDS011;49100;48.842;2.166;2022-09-28T06:45:59;7.25;;;4.00;;
63010;SDS011;49100;48.842;2.166;2022-09-28T06:48:45;8.00;;;5.00;;
63010;SDS011;49100;48.842;2.166;2022-09-28T06:51:29;7.50;;;4.50;;
63010;SDS011;49100;48.842;2.166;2022-09-28T06:54:14;5.00;;;3.50;;
63010;SDS011;49100;48.842;2.166;2022-09-28T06:56:58;8.75;;;4.00;;
63010;SDS011;49100;48.842;2.166;2022-09-28T06:59:42;11.25;;;7.00;;
63010;SDS011;49100;48.842;2.166;2022-09-28T07:02:27;13.00;;;8.00;;
63010;SDS011;49100;48.842;2.166;2022-09-28T07:05:11;10.25;;;10.25;;
63010;SDS011;49100;48.842;2.166;2022-09-28T07:07:56;10.25;;;7.50;;
63010;SDS011;49100;48.842;2.166;2022-09-28T07:10:44;11.00;;;8.00;;
63010;SDS011;49100;48.842;2.166;2022-09-28T07:13:29;15.25;;;12.25;;
63010;SDS011;49100;48.842;2.166;2022-09-28T07:16:14;14.25;;;12.75;;
63010;SDS011;49100;48.842;2.166;2022-09-28T07:18:59;12.25;;;10.25;;
63010;SDS011;49100;48.842;2.166;2022-09-28T07:21:43;23.00;;;20.25;;
63010;SDS011;49100;48.842;2.166;2022-09-28T07:24:27;17.25;;;13.00;;
63010;SDS011;49100;48.842;2.166;2022-09-28T07:27:13;16.75;;;14.00;;
63010;SDS011;49100;48.842;2.166;2022-09-28T07:29:58;17.00;;;11.75;;
63010;SDS011;49100;48.842;2.166;2022-09-28T07:32:46;13.00;;;10.00;;
63010;SDS011;49100;48.842;2.166;2022-09-28T07:35:31;18.00;;;17.50;;
63010;SDS011;49100;48.842;2.166;2022-09-28T07:38:18;5.75;;;5.50;;
63010;SDS011;49100;48.842;2.166;2022-09-28T07:41:03;13.50;;;9.25;;
63010;SDS011;49100;48.842;2.166;2022-09-28T07:43:59;9.00;;;6.00;;
63010;SDS011;49100;48.842;2.166;2022-09-28T07:46:50;9.00;;;7.50;;
63010;SDS011;49100;48.842;2.166;2022-09-28T07:49:35;6.00;;;4.00;;
63010;SDS011;49100;48.842;2.166;2022-09-28T07:52:19;4.75;;;4.75;;
63010;SDS011;49100;48.842;2.166;2022-09-28T07:55:07;8.00;;;5.00;;
63010;SDS011;49100;48.842;2.166;2022-09-28T07:57:53;10.25;;;5.50;;
63010;SDS011;49100;48.842;2.166;2022-09-28T08:00:44;8.00;;;8.00;;
63010;SDS011;49100;48.842;2.166;2022-09-28T08:03:30;8.00;;;6.00;;
63010;SDS011;49100;48.842;2.166;2022-09-28T08:06:16;14.00;;;7.00;;
63010;SDS011;49100;48.842;2.166;2022-09-28T08:09:00;9.00;;;7.25;;
63010;SDS011;49100;48.842;2.166;2022-09-28T08:11:45;13.50;;;10.00;;
63010;SDS011;49100;48.842;2.166;2022-09-28T08:14:30;10.00;;;8.25;;
63010;SDS011;49100;48.842;2.166;2022-09-28T08:17:17;12.25;;;9.50;;
63010;SDS011;49100;48.842;2.166;2022-09-28T08:20:02;6.75;;;6.25;;
63010;SDS011;49100;48.842;2.166;2022-09-28T08:23:06;7.25;;;6.00;;
63010;SDS011;49100;48.842;2.166;2022-09-28T08:25:51;6.50;;;5.00;;
63010;SDS011;49100;48.842;2.166;2022-09-28T08:28:37;7.00;;;7.00;;
63010;SDS011;49100;48.842;2.166;2022-09-28T08:31:22;8.50;;;6.00;;
63010;SDS011;49100;48.842;2.166;2022-09-28T08:34:06;13.25;;;12.25;;
63010;SDS011;49100;48.842;2.166;2022-09-28T08:36:51;11.75;;;11.75;;
63010;SDS011;49100;48.842;2.166;2022-09-28T08:39:36;9.25;;;8.00;;
63010;SDS011;49100;48.842;2.166;2022-09-28T08:42:33;9.00;;;8.00;;
63010;SDS011;49100;48.842;2.166;2022-09-28T08:45:27;12.25;;;9.50;;
63010;SDS011;49100;48.842;2.166;2022-09-28T08:48:24;11.75;;;10.00;;
63010;SDS011;49100;48.842;2.166;2022-09-28T08:54:40;9.50;;;7.00;;
63010;SDS011;49100;48.842;2.166;2022-09-28T08:57:32;9.25;;;7.00;;
63010;SDS011;49100;48.842;2.166;2022-09-28T09:00:32;6.25;;;4.75;;
63010;SDS011;49100;48.842;2.166;2022-09-28T09:03:22;6.25;;;5.00;;
63010;SDS011;49100;48.842;2.166;2022-09-28T09:06:20;6.75;;;5.25;;
63010;SDS011;49100;48.842;2.166;2022-09-28T09:09:34;4.50;;;4.50;;
63010;SDS011;49100;48.842;2.166;2022-09-28T09:30:23;7.25;;;6.00;;
63010;SDS011;49100;48.842;2.166;2022-09-28T09:39:39;7.25;;;6.50;;
63010;SDS011;49100;48.842;2.166;2022-09-28T09:42:43;12.50;;;8.75;;
63010;SDS011;49100;48.842;2.166;2022-09-28T09:49:00;11.00;;;9.00;;
63010;SDS011;49100;48.842;2.166;2022-09-28T09:57:59;11.50;;;8.50;;
63010;SDS011;49100;48.842;2.166;2022-09-28T10:00:48;12.00;;;11.00;;
63010;SDS011;49100;48.842;2.166;2022-09-28T10:03:36;12.75;;;11.50;;
63010;SDS011;49100;48.842;2.166;2022-09-28T10:06:25;11.00;;;8.50;;
63010;SDS011;49100;48.842;2.166;2022-09-28T10:09:22;8.00;;;5.00;;
63010;SDS011;49100;48.842;2.166;2022-09-28T10:12:09;8.75;;;7.00;;
63010;SDS011;49100;48.842;2.166;2022-09-28T10:14:58;6.50;;;4.75;;
63010;SDS011;49100;48.842;2.166;2022-09-28T10:17:46;5.75;;;3.00;;
63010;SDS011;49100;48.842;2.166;2022-09-28T10:20:32;4.00;;;3.00;;
63010;SDS011;49100;48.842;2.166;2022-09-28T10:23:28;7.50;;;4.00;;
63010;SDS011;49100;48.842;2.166;2022-09-28T10:26:18;3.25;;;2.25;;
63010;SDS011;49100;48.842;2.166;2022-09-28T10:29:13;3.25;;;3.25;;
63010;SDS011;49100;48.842;2.166;2022-09-28T10:32:01;2.00;;;2.00;;
63010;SDS011;49100;48.842;2.166;2022-09-28T10:38:14;7.50;;;4.00;;
63010;SDS011;49100;48.842;2.166;2022-09-28T10:41:08;8.75;;;2.50;;
63010;SDS011;49100;48.842;2.166;2022-09-28T10:43:54;7.00;;;2.50;;
63010;SDS011;49100;48.842;2.166;2022-09-28T10:46:57;6.25;;;3.75;;
63010;SDS011;49100;48.842;2.166;2022-09-28T10:49:44;8.50;;;5.25;;
63010;SDS011;49100;48.842;2.166;2022-09-28T10:52:41;6.50;;;3.50;;
63010;SDS011;49100;48.842;2.166;2022-09-28T10:55:30;7.25;;;6.75;;
63010;SDS011;49100;48.842;2.166;2022-09-28T10:58:23;5.75;;;5.75;;
63010;SDS011;49100;48.842;2.166;2022-09-28T11:01:11;3.00;;;3.00;;
63010;SDS011;49100;48.842;2.166;2022-09-28T11:04:01;3.75;;;3.00;;
63010;SDS011;49100;48.842;2.166;2022-09-28T11:06:47;8.00;;;4.50;;
63010;SDS011;49100;48.842;2.166;2022-09-28T11:09:34;3.25;;;3.25;;
63010;SDS011;49100;48.842;2.166;2022-09-28T11:12:25;8.75;;;5.00;;
63010;SDS011;49100;48.842;2.166;2022-09-28T11:15:20;7.25;;;5.25;;
63010;SDS011;49100;48.842;2.166;2022-09-28T11:21:08;5.00;;;3.75;;
63010;SDS011;49100;48.842;2.166;2022-09-28T11:23:57;6.75;;;5.75;;
63010;SDS011;49100;48.842;2.166;2022-09-28T11:26:51;9.50;;;7.00;;
63010;SDS011;49100;48.842;2.166;2022-09-28T11:29:39;11.75;;;8.75;;
63010;SDS011;49100;48.842;2.166;2022-09-28T11:32:27;12.00;;;8.50;;
63010;SDS011;49100;48.842;2.166;2022-09-28T11:35:24;11.75;;;6.25;;
63010;SDS011;49100;48.842;2.166;2022-09-28T11:38:31;8.75;;;6.25;;
63010;SDS011;49100;48.842;2.166;2022-09-28T11:41:40;6.25;;;4.00;;
63010;SDS011;49100;48.842;2.166;2022-09-28T11:44:37;9.50;;;8.50;;
63010;SDS011;49100;48.842;2.166;2022-09-28T11:50:21;11.25;;;9.00;;
63010;SDS011;49100;48.842;2.166;2022-09-28T11:59:20;10.00;;;8.75;;
63010;SDS011;49100;48.842;2.166;2022-09-28T12:02:19;6.75;;;6.75;;
63010;SDS011;49100;48.842;2.166;2022-09-28T12:08:29;4.00;;;3.00;;
63010;SDS011;49100;48.842;2.166;2022-09-28T12:11:19;8.00;;;5.25;;
63010;SDS011;49100;48.842;2.166;2022-09-28T12:14:11;6.50;;;3.00;;
63010;SDS011;49100;48.842;2.166;2022-09-28T12:17:37;3.25;;;3.25;;
63010;SDS011;49100;48.842;2.166;2022-09-28T12:20:28;2.00;;;2.00;;
63010;SDS011;49100;48.842;2.166;2022-09-28T12:23:23;5.00;;;3.50;;
63010;SDS011;49100;48.842;2.166;2022-09-28T12:29:31;6.00;;;4.00;;
63010;SDS011;49100;48.842;2.166;2022-09-28T12:32:42;4.00;;;3.00;;
63010;SDS011;49100;48.842;2.166;2022-09-28T12:35:52;4.75;;;2.25;;
63010;SDS011;49100;48.842;2.166;2022-09-28T12:59:36;5.00;;;4.50;;
63010;SDS011;49100;48.842;2.166;2022-09-28T13:11:12;2.00;;;2.00;;
63010;SDS011;49100;48.842;2.166;2022-09-28T13:23:29;4.75;;;1.00;;
63010;SDS011;49100;48.842;2.166;2022-09-28T13:26:25;3.25;;;2.00;;
63010;SDS011;49100;48.842;2.166;2022-09-28T13:29:11;2.00;;;2.00;;
63010;SDS011;49100;48.842;2.166;2022-09-28T13:31:58;4.50;;;3.00;;
63010;SDS011;49100;48.842;2.166;2022-09-28T13:34:45;3.50;;;3.25;;
63010;SDS011;49100;48.842;2.166;2022-09-28T13:37:31;5.50;;;3.25;;
63010;SDS011;49100;48.842;2.166;2022-09-28T13:40:17;4.75;;;3.00;;
63010;SDS011;49100;48.842;2.166;2022-09-28T13:43:08;3.50;;;3.00;;
63010;SDS011;49100;48.842;2.166;2022-09-28T13:46:12;1.25;;;1.25;;
63010;SDS011;49100;48.842;2.166;2022-09-28T13:57:54;6.75;;;4.50;;
63010;SDS011;49100;48.842;2.166;2022-09-28T14:01:11;7.25;;;4.75;;
63010;SDS011;49100;48.842;2.166;2022-09-28T14:04:11;5.00;;;4.00;;
63010;SDS011;49100;48.842;2.166;2022-09-28T14:07:09;5.00;;;3.50;;
63010;SDS011;49100;48.842;2.166;2022-09-28T14:13:05;4.75;;;3.50;;
63010;SDS011;49100;48.842;2.166;2022-09-28T14:15:51;6.75;;;3.00;;
63010;SDS011;49100;48.842;2.166;2022-09-28T14:18:36;4.25;;;1.50;;
63010;SDS011;49100;48.842;2.166;2022-09-28T14:36:06;3.00;;;1.25;;
63010;SDS011;49100;48.842;2.166;2022-09-28T14:39:27;4.50;;;2.00;;
63010;SDS011;49100;48.842;2.166;2022-09-28T14:42:34;5.75;;;3.00;;
63010;SDS011;49100;48.842;2.166;2022-09-28T14:45:18;2.50;;;1.00;;
63010;SDS011;49100;48.842;2.166;2022-09-28T14:48:20;1.00;;;1.00;;
63010;SDS011;49100;48.842;2.166;2022-09-28T14:54:16;1.00;;;1.00;;
63010;SDS011;49100;48.842;2.166;2022-09-28T14:57:06;0.25;;;0.00;;
63010;SDS011;49100;48.842;2.166;2022-09-28T14:59:59;3.00;;;2.00;;
63010;SDS011;49100;48.842;2.166;2022-09-28T15:02:53;0.00;;;0.00;;
63010;SDS011;49100;48.842;2.166;2022-09-28T15:05:43;4.00;;;1.75;;
63010;SDS011;49100;48.842;2.166;2022-09-28T15:08:36;3.00;;;2.00;;
63010;SDS011;49100;48.842;2.166;2022-09-28T15:11:22;1.00;;;1.00;;
63010;SDS011;49100;48.842;2.166;2022-09-28T15:14:08;4.75;;;0.00;;
63010;SDS011;49100;48.842;2.166;2022-09-28T15:16:53;1.00;;;0.50;;
63010;SDS011;49100;48.842;2.166;2022-09-28T15:22:49;3.00;;;1.00;;
63010;SDS011;49100;48.842;2.166;2022-09-28T15:25:39;1.00;;;1.00;;
63010;SDS011;49100;48.842;2.166;2022-09-28T15:28:24;2.00;;;0.75;;
63010;SDS011;49100;48.842;2.166;2022-09-28T15:31:14;2.50;;;0.50;;
63010;SDS011;49100;48.842;2.166;2022-09-28T15:34:01;1.25;;;1.00;;
63010;SDS011;49100;48.842;2.166;2022-09-28T15:37:04;2.50;;;1.00;;
63010;SDS011;49100;48.842;2.166;2022-09-28T15:39:54;7.50;;;2.00;;
63010;SDS011;49100;48.842;2.166;2022-09-28T15:42:40;4.25;;;1.75;;
63010;SDS011;49100;48.842;2.166;2022-09-28T15:45:34;1.00;;;1.00;;
63010;SDS011;49100;48.842;2.166;2022-09-28T15:48:27;6.50;;;2.00;;
63010;SDS011;49100;48.842;2.166;2022-09-28T15:51:14;16.50;;;13.50;;
63010;SDS011;49100;48.842;2.166;2022-09-28T15:59:37;21.00;;;20.00;;
63010;SDS011;49100;48.842;2.166;2022-09-28T16:02:23;22.75;;;20.00;;
63010;SDS011;49100;48.842;2.166;2022-09-28T16:05:20;10.25;;;10.00;;
63010;SDS011;49100;48.842;2.166;2022-09-28T16:14:17;5.25;;;3.50;;
63010;SDS011;49100;48.842;2.166;2022-09-28T16:17:03;6.50;;;3.50;;
63010;SDS011;49100;48.842;2.166;2022-09-28T16:19:47;4.75;;;2.50;;
63010;SDS011;49100;48.842;2.166;2022-09-28T16:22:32;3.00;;;3.00;;
63010;SDS011;49100;48.842;2.166;2022-09-28T16:25:17;8.50;;;4.00;;
63010;SDS011;49100;48.842;2.166;2022-09-28T16:28:11;6.75;;;3.00;;
63010;SDS011;49100;48.842;2.166;2022-09-28T16:34:16;7.75;;;2.25;;
63010;SDS011;49100;48.842;2.166;2022-09-28T16:37:21;3.25;;;3.25;;
63010;SDS011;49100;48.842;2.166;2022-09-28T16:40:14;0.00;;;0.00;;
63010;SDS011;49100;48.842;2.166;2022-09-28T16:43:00;1.25;;;1.25;;
63010;SDS011;49100;48.842;2.166;2022-09-28T16:45:46;6.25;;;1.75;;
63010;SDS011;49100;48.842;2.166;2022-09-28T16:48:31;4.25;;;2.00;;
63010;SDS011;49100;48.842;2.166;2022-09-28T16:51:18;4.00;;;2.75;;
63010;SDS011;49100;48.842;2.166;2022-09-28T16:54:17;3.25;;;1.75;;
63010;SDS011;49100;48.842;2.166;2022-09-28T16:57:21;0.50;;;0.50;;
63010;SDS011;49100;48.842;2.166;2022-09-28T17:00:08;1.50;;;1.25;;
63010;SDS011;49100;48.842;2.166;2022-09-28T17:02:58;3.00;;;1.00;;
63010;SDS011;49100;48.842;2.166;2022-09-28T17:05:42;7.50;;;6.25;;
63010;SDS011;49100;48.842;2.166;2022-09-28T17:08:28;8.00;;;3.00;;
63010;SDS011;49100;48.842;2.166;2022-09-28T17:11:14;5.25;;;4.00;;
63010;SDS011;49100;48.842;2.166;2022-09-28T17:13:59;3.00;;;2.00;;
63010;SDS011;49100;48.842;2.166;2022-09-28T17:16:46;3.00;;;2.25;;
63010;SDS011;49100;48.842;2.166;2022-09-28T17:19:35;0.75;;;0.75;;
63010;SDS011;49100;48.842;2.166;2022-09-28T17:22:19;6.25;;;2.75;;
63010;SDS011;49100;48.842;2.166;2022-09-28T17:25:04;4.25;;;3.25;;
63010;SDS011;49100;48.842;2.166;2022-09-28T17:27:49;3.75;;;3.00;;
63010;SDS011;49100;48.842;2.166;2022-09-28T17:30:34;2.50;;;2.50;;
63010;SDS011;49100;48.842;2.166;2022-09-28T17:33:19;5.25;;;4.00;;
63010;SDS011;49100;48.842;2.166;2022-09-28T17:36:03;4.50;;;1.00;;
63010;SDS011;49100;48.842;2.166;2022-09-28T17:38:49;4.25;;;3.00;;
63010;SDS011;49100;48.842;2.166;2022-09-28T17:41:35;4.00;;;4.00;;
63010;SDS011;49100;48.842;2.166;2022-09-28T17:44:20;5.00;;;3.00;;
63010;SDS011;49100;48.842;2.166;2022-09-28T17:47:04;1.75;;;1.75;;
63010;SDS011;49100;48.842;2.166;2022-09-28T17:49:50;2.50;;;2.50;;
63010;SDS011;49100;48.842;2.166;2022-09-28T17:52:36;7.25;;;1.75;;
63010;SDS011;49100;48.842;2.166;2022-09-28T17:55:21;4.75;;;2.00;;
63010;SDS011;49100;48.842;2.166;2022-09-28T17:58:28;2.00;;;2.00;;
63010;SDS011;49100;48.842;2.166;2022-09-28T18:01:12;1.75;;;1.75;;
63010;SDS011;49100;48.842;2.166;2022-09-28T18:03:57;3.75;;;1.75;;
63010;SDS011;49100;48.842;2.166;2022-09-28T18:06:43;6.50;;;1.50;;
63010;SDS011;49100;48.842;2.166;2022-09-28T18:09:27;6.50;;;1.75;;
63010;SDS011;49100;48.842;2.166;2022-09-28T18:12:12;2.00;;;2.00;;
63010;SDS011;49100;48.842;2.166;2022-09-28T18:14:56;2.00;;;0.00;;
63010;SDS011;49100;48.842;2.166;2022-09-28T18:17:41;1.00;;;1.00;;
63010;SDS011;49100;48.842;2.166;2022-09-28T18:20:25;3.25;;;2.25;;
63010;SDS011;49100;48.842;2.166;2022-09-28T18:23:10;3.00;;;1.25;;
63010;SDS011;49100;48.842;2.166;2022-09-28T18:25:54;4.50;;;2.00;;
63010;SDS011;49100;48.842;2.166;2022-09-28T18:28:38;2.25;;;2.00;;
63010;SDS011;49100;48.842;2.166;2022-09-28T18:31:23;4.25;;;3.00;;
63010;SDS011;49100;48.842;2.166;2022-09-28T18:34:08;3.00;;;2.25;;
63010;SDS011;49100;48.842;2.166;2022-09-28T18:36:53;8.25;;;2.25;;
63010;SDS011;49100;48.842;2.166;2022-09-28T18:39:37;3.25;;;2.00;;
63010;SDS011;49100;48.842;2.166;2022-09-28T18:42:22;7.75;;;2.75;;
63010;SDS011;49100;48.842;2.166;2022-09-28T18:45:07;5.75;;;3.75;;
63010;SDS011;49100;48.842;2.166;2022-09-28T18:47:56;6.00;;;4.75;;
63010;SDS011;49100;48.842;2.166;2022-09-28T18:50:41;6.00;;;5.75;;
63010;SDS011;49100;48.842;2.166;2022-09-28T18:53:25;5.00;;;4.50;;
63010;SDS011;49100;48.842;2.166;2022-09-28T18:56:12;4.00;;;4.00;;
63010;SDS011;49100;48.842;2.166;2022-09-28T18:58:59;5.00;;;4.00;;
63010;SDS011;49100;48.842;2.166;2022-09-28T19:01:44;8.00;;;4.25;;
63010;SDS011;49100;48.842;2.166;2022-09-28T19:04:28;9.00;;;5.00;;
63010;SDS011;49100;48.842;2.166;2022-09-28T19:07:13;7.25;;;4.00;;
63010;SDS011;49100;48.842;2.166;2022-09-28T19:09:59;5.00;;;3.00;;
63010;SDS011;49100;48.842;2.166;2022-09-28T19:12:44;1.00;;;1.00;;
63010;SDS011;49100;48.842;2.166;2022-09-28T19:15:28;6.00;;;3.00;;
63010;SDS011;49100;48.842;2.166;2022-09-28T19:18:12;7.50;;;4.25;;
63010;SDS011;49100;48.842;2.166;2022-09-28T19:21:00;4.75;;;4.00;;
63010;SDS011;49100;48.842;2.166;2022-09-28T19:23:46;8.25;;;5.25;;
63010;SDS011;49100;48.842;2.166;2022-09-28T19:26:33;7.75;;;6.00;;
63010;SDS011;49100;48.842;2.166;2022-09-28T19:29:18;3.75;;;3.75;;
63010;SDS011;49100;48.842;2.166;2022-09-28T19:32:03;7.75;;;5.00;;
63010;SDS011;49100;48.842;2.166;2022-09-28T19:34:47;7.50;;;6.00;;
63010;SDS011;49100;48.842;2.166;2022-09-28T19:37:32;4.75;;;4.50;;
63010;SDS011;49100;48.842;2.166;2022-09-28T19:40:22;7.00;;;4.25;;
63010;SDS011;49100;48.842;2.166;2022-09-28T19:43:06;7.75;;;4.00;;
63010;SDS011;49100;48.842;2.166;2022-09-28T19:45:51;2.25;;;2.00;;
63010;SDS011;49100;48.842;2.166;2022-09-28T19:48:38;5.00;;;2.00;;
63010;SDS011;49100;48.842;2.166;2022-09-28T19:51:29;3.00;;;2.25;;
63010;SDS011;49100;48.842;2.166;2022-09-28T19:54:14;2.00;;;2.00;;